sensor_id;sensor_type;location;lat;lon;timestamp;temperature;humidity
47765;DHT22;33529;49.242;8.670;2023-07-20T00:00:07;18.90;98.70
47765;DHT22;33529;49.242;8.670;2023-07-20T00:02:38;18.90;99.40
47765;DHT22;33529;49.242;8.670;2023-07-20T00:05:05;18.80;99.90
47765;DHT22;33529;49.242;8.670;2023-07-20T00:07:32;18.70;99.90
47765;DHT22;33529;49.242;8.670;2023-07-20T00:10:00;18.60;99.90
47765;DHT22;33529;49.242;8.670;2023-07-20T00:12:26;18.60;99.90
47765;DHT22;33529;49.242;8.670;2023-07-20T00:14:53;18.50;99.90
47765;DHT22;33529;49.242;8.670;2023-07-20T00:17:20;18.50;99.90
47765;DHT22;33529;49.242;8.670;2023-07-20T00:19:47;18.50;99.90
47765;DHT22;33529;49.242;8.670;2023-07-20T00:22:14;18.40;99.90
47765;DHT22;33529;49.242;8.670;2023-07-20T00:24:41;18.30;99.90
47765;DHT22;33529;49.242;8.670;2023-07-20T00:27:08;18.30;99.90
47765;DHT22;33529;49.242;8.670;2023-07-20T00:29:36;18.20;99.90
47765;DHT22;33529;49.242;8.670;2023-07-20T00:32:03;18.10;99.90
47765;DHT22;33529;49.242;8.670;2023-07-20T00:34:32;18.00;99.90
47765;DHT22;33529;49.242;8.670;2023-07-20T00:36:59;17.90;99.90
47765;DHT22;33529;49.242;8.670;2023-07-20T00:39:26;17.90;99.90
47765;DHT22;33529;49.242;8.670;2023-07-20T00:41:52;17.90;99.90
47765;DHT22;33529;49.242;8.670;2023-07-20T00:44:19;17.80;99.90
47765;DHT22;33529;49.242;8.670;2023-07-20T00:46:46;17.80;99.90
47765;DHT22;33529;49.242;8.670;2023-07-20T00:49:14;17.70;99.90
47765;DHT22;33529;49.242;8.670;2023-07-20T00:51:41;17.70;99.90
47765;DHT22;33529;49.242;8.670;2023-07-20T00:54:09;17.60;99.90
47765;DHT22;33529;49.242;8.670;2023-07-20T00:56:36;17.50;99.90
47765;DHT22;33529;49.242;8.670;2023-07-20T00:59:05;17.50;99.90
47765;DHT22;33529;49.242;8.670;2023-07-20T01:01:32;17.40;99.90
47765;DHT22;33529;49.242;8.670;2023-07-20T01:03:59;17.50;99.90
47765;DHT22;33529;49.242;8.670;2023-07-20T01:09:08;17.30;99.90
47765;DHT22;33529;49.242;8.670;2023-07-20T01:12:13;17.30;99.90
47765;DHT22;33529;49.242;8.670;2023-07-20T01:14:43;17.30;99.90
47765;DHT22;33529;49.242;8.670;2023-07-20T01:17:10;17.30;99.90
47765;DHT22;33529;49.242;8.670;2023-07-20T01:19:37;17.30;99.90
47765;DHT22;33529;49.242;8.670;2023-07-20T01:27:46;17.40;99.90
47765;DHT22;33529;49.242;8.670;2023-07-20T01:33:02;17.30;99.90
47765;DHT22;33529;49.242;8.670;2023-07-20T01:35:30;17.40;99.90
47765;DHT22;33529;49.242;8.670;2023-07-20T01:37:58;17.30;99.90
47765;DHT22;33529;49.242;8.670;2023-07-20T01:40:26;17.20;99.90
47765;DHT22;33529;49.242;8.670;2023-07-20T01:42:53;17.20;99.90
47765;DHT22;33529;49.242;8.670;2023-07-20T01:45:20;17.10;99.90
47765;DHT22;33529;49.242;8.670;2023-07-20T01:47:47;17.10;99.90
47765;DHT22;33529;49.242;8.670;2023-07-20T01:50:14;17.00;99.90
47765;DHT22;33529;49.242;8.670;2023-07-20T01:52:41;16.90;99.90
47765;DHT22;33529;49.242;8.670;2023-07-20T01:55:08;16.70;99.90
47765;DHT22;33529;49.242;8.670;2023-07-20T01:57:35;16.60;99.90
47765;DHT22;33529;49.242;8.670;2023-07-20T02:00:02;16.60;99.90
47765;DHT22;33529;49.242;8.670;2023-07-20T02:02:41;16.40;99.90
47765;DHT22;33529;49.242;8.670;2023-07-20T02:05:08;16.30;99.90
47765;DHT22;33529;49.242;8.670;2023-07-20T02:07:35;16.20;99.90
47765;DHT22;33529;49.242;8.670;2023-07-20T02:10:01;16.20;99.90
47765;DHT22;33529;49.242;8.670;2023-07-20T02:12:28;16.20;99.90
47765;DHT22;33529;49.242;8.670;2023-07-20T02:14:55;16.10;99.90
47765;DHT22;33529;49.242;8.670;2023-07-20T02:17:22;16.00;99.90
47765;DHT22;33529;49.242;8.670;2023-07-20T02:19:56;15.90;99.90
47765;DHT22;33529;49.242;8.670;2023-07-20T02:22:24;16.00;99.90
47765;DHT22;33529;49.242;8.670;2023-07-20T02:24:51;16.00;99.90
47765;DHT22;33529;49.242;8.670;2023-07-20T02:27:18;16.10;99.90
47765;DHT22;33529;49.242;8.670;2023-07-20T02:29:45;16.10;99.90
47765;DHT22;33529;49.242;8.670;2023-07-20T02:32:12;16.10;99.90
47765;DHT22;33529;49.242;8.670;2023-07-20T02:34:38;16.10;99.90
47765;DHT22;33529;49.242;8.670;2023-07-20T02:37:05;16.10;99.90
47765;DHT22;33529;49.242;8.670;2023-07-20T02:39:34;16.00;99.90
47765;DHT22;33529;49.242;8.670;2023-07-20T02:42:00;15.90;99.90
47765;DHT22;33529;49.242;8.670;2023-07-20T02:44:28;15.80;99.90
47765;DHT22;33529;49.242;8.670;2023-07-20T02:46:54;15.80;99.90
47765;DHT22;33529;49.242;8.670;2023-07-20T02:49:21;15.70;99.90
47765;DHT22;33529;49.242;8.670;2023-07-20T02:51:48;15.70;99.90
47765;DHT22;33529;49.242;8.670;2023-07-20T02:54:15;15.80;99.90
47765;DHT22;33529;49.242;8.670;2023-07-20T02:56:42;15.70;99.90
47765;DHT22;33529;49.242;8.670;2023-07-20T02:59:09;15.60;99.90
47765;DHT22;33529;49.242;8.670;2023-07-20T03:01:36;15.60;99.90
47765;DHT22;33529;49.242;8.670;2023-07-20T03:04:03;15.60;99.90
47765;DHT22;33529;49.242;8.670;2023-07-20T03:06:31;15.60;99.90
47765;DHT22;33529;49.242;8.670;2023-07-20T03:08:58;15.60;99.90
47765;DHT22;33529;49.242;8.670;2023-07-20T03:11:25;15.60;99.90
47765;DHT22;33529;49.242;8.670;2023-07-20T03:13:52;15.70;99.90
47765;DHT22;33529;49.242;8.670;2023-07-20T03:16:24;15.60;99.90
47765;DHT22;33529;49.242;8.670;2023-07-20T03:18:52;15.60;99.90
47765;DHT22;33529;49.242;8.670;2023-07-20T03:21:19;15.60;99.90
47765;DHT22;33529;49.242;8.670;2023-07-20T03:23:47;15.60;99.90
47765;DHT22;33529;49.242;8.670;2023-07-20T03:26:13;15.60;99.90
47765;DHT22;33529;49.242;8.670;2023-07-20T03:28:40;15.60;99.90
47765;DHT22;33529;49.242;8.670;2023-07-20T03:31:09;15.60;99.90
47765;DHT22;33529;49.242;8.670;2023-07-20T03:33:39;15.50;99.90
47765;DHT22;33529;49.242;8.670;2023-07-20T03:36:09;15.40;99.90
47765;DHT22;33529;49.242;8.670;2023-07-20T03:38:37;15.40;99.90
47765;DHT22;33529;49.242;8.670;2023-07-20T03:41:03;15.30;99.90
47765;DHT22;33529;49.242;8.670;2023-07-20T03:43:30;15.30;99.90
47765;DHT22;33529;49.242;8.670;2023-07-20T03:45:57;15.30;99.90
47765;DHT22;33529;49.242;8.670;2023-07-20T03:48:25;15.30;99.90
47765;DHT22;33529;49.242;8.670;2023-07-20T03:50:53;15.30;99.90
47765;DHT22;33529;49.242;8.670;2023-07-20T03:53:20;15.30;99.90
47765;DHT22;33529;49.242;8.670;2023-07-20T03:55:51;15.30;99.90
47765;DHT22;33529;49.242;8.670;2023-07-20T03:58:19;15.30;99.90
47765;DHT22;33529;49.242;8.670;2023-07-20T04:00:47;15.30;99.90
47765;DHT22;33529;49.242;8.670;2023-07-20T04:03:15;15.40;99.90
47765;DHT22;33529;49.242;8.670;2023-07-20T04:05:43;15.40;99.90
47765;DHT22;33529;49.242;8.670;2023-07-20T04:08:10;15.50;99.90
47765;DHT22;33529;49.242;8.670;2023-07-20T04:10:38;15.60;99.90
47765;DHT22;33529;49.242;8.670;2023-07-20T04:13:05;15.70;99.90
47765;DHT22;33529;49.242;8.670;2023-07-20T04:15:32;15.80;99.90
47765;DHT22;33529;49.242;8.670;2023-07-20T04:17:59;15.90;99.90
47765;DHT22;33529;49.242;8.670;2023-07-20T04:20:27;15.90;99.90
47765;DHT22;33529;49.242;8.670;2023-07-20T04:22:54;16.10;99.90
47765;DHT22;33529;49.242;8.670;2023-07-20T04:25:22;16.10;99.90
47765;DHT22;33529;49.242;8.670;2023-07-20T04:27:49;16.20;99.90
47765;DHT22;33529;49.242;8.670;2023-07-20T04:30:18;16.30;99.90
47765;DHT22;33529;49.242;8.670;2023-07-20T04:32:49;16.40;99.90
47765;DHT22;33529;49.242;8.670;2023-07-20T04:35:51;16.50;99.90
47765;DHT22;33529;49.242;8.670;2023-07-20T04:38:22;16.50;99.90
47765;DHT22;33529;49.242;8.670;2023-07-20T04:41:11;16.50;99.90
47765;DHT22;33529;49.242;8.670;2023-07-20T04:43:42;16.60;99.90
47765;DHT22;33529;49.242;8.670;2023-07-20T04:46:11;16.70;99.90
47765;DHT22;33529;49.242;8.670;2023-07-20T04:48:38;16.80;99.90
47765;DHT22;33529;49.242;8.670;2023-07-20T04:51:07;16.90;99.90
47765;DHT22;33529;49.242;8.670;2023-07-20T04:53:34;16.90;99.90
47765;DHT22;33529;49.242;8.670;2023-07-20T04:56:02;17.00;99.90
47765;DHT22;33529;49.242;8.670;2023-07-20T04:58:29;17.00;99.90
47765;DHT22;33529;49.242;8.670;2023-07-20T05:00:56;17.10;99.90
47765;DHT22;33529;49.242;8.670;2023-07-20T05:03:24;17.10;99.90
47765;DHT22;33529;49.242;8.670;2023-07-20T05:05:52;17.00;99.90
47765;DHT22;33529;49.242;8.670;2023-07-20T05:08:19;17.10;99.90
47765;DHT22;33529;49.242;8.670;2023-07-20T05:10:47;17.20;99.90
47765;DHT22;33529;49.242;8.670;2023-07-20T05:13:14;17.30;99.90
47765;DHT22;33529;49.242;8.670;2023-07-20T05:15:41;17.30;99.90
47765;DHT22;33529;49.242;8.670;2023-07-20T05:18:12;17.40;99.90
47765;DHT22;33529;49.242;8.670;2023-07-20T05:20:39;17.50;99.90
47765;DHT22;33529;49.242;8.670;2023-07-20T05:23:06;17.60;99.90
47765;DHT22;33529;49.242;8.670;2023-07-20T05:25:33;17.60;99.90
47765;DHT22;33529;49.242;8.670;2023-07-20T05:28:00;17.60;99.90
47765;DHT22;33529;49.242;8.670;2023-07-20T05:30:27;17.70;99.90
47765;DHT22;33529;49.242;8.670;2023-07-20T05:32:55;17.80;99.90
47765;DHT22;33529;49.242;8.670;2023-07-20T05:35:23;18.00;99.90
47765;DHT22;33529;49.242;8.670;2023-07-20T05:37:49;18.10;99.90
47765;DHT22;33529;49.242;8.670;2023-07-20T05:40:16;18.20;99.90
47765;DHT22;33529;49.242;8.670;2023-07-20T05:42:48;18.20;99.90
47765;DHT22;33529;49.242;8.670;2023-07-20T05:45:15;18.10;99.90
47765;DHT22;33529;49.242;8.670;2023-07-20T05:47:42;18.30;99.90
47765;DHT22;33529;49.242;8.670;2023-07-20T05:50:10;18.30;99.90
47765;DHT22;33529;49.242;8.670;2023-07-20T05:52:37;18.40;99.90
47765;DHT22;33529;49.242;8.670;2023-07-20T05:55:06;18.40;99.90
47765;DHT22;33529;49.242;8.670;2023-07-20T05:57:33;18.50;99.90
47765;DHT22;33529;49.242;8.670;2023-07-20T06:00:00;18.70;99.90
47765;DHT22;33529;49.242;8.670;2023-07-20T06:02:37;18.90;99.90
47765;DHT22;33529;49.242;8.670;2023-07-20T06:05:05;19.10;99.90
47765;DHT22;33529;49.242;8.670;2023-07-20T06:07:32;19.30;99.90
47765;DHT22;33529;49.242;8.670;2023-07-20T06:09:59;19.50;99.90
47765;DHT22;33529;49.242;8.670;2023-07-20T06:12:26;19.50;99.90
47765;DHT22;33529;49.242;8.670;2023-07-20T06:14:53;19.60;99.90
47765;DHT22;33529;49.242;8.670;2023-07-20T06:17:20;19.70;99.90
47765;DHT22;33529;49.242;8.670;2023-07-20T06:19:47;20.00;99.90
47765;DHT22;33529;49.242;8.670;2023-07-20T06:22:14;20.30;99.90
47765;DHT22;33529;49.242;8.670;2023-07-20T06:24:41;20.40;99.90
47765;DHT22;33529;49.242;8.670;2023-07-20T06:27:08;20.50;99.90
47765;DHT22;33529;49.242;8.670;2023-07-20T06:29:34;20.50;99.90
47765;DHT22;33529;49.242;8.670;2023-07-20T06:32:01;20.60;99.90
47765;DHT22;33529;49.242;8.670;2023-07-20T06:34:28;20.70;99.90
47765;DHT22;33529;49.242;8.670;2023-07-20T06:36:56;21.10;99.90
47765;DHT22;33529;49.242;8.670;2023-07-20T06:39:23;21.40;99.90
47765;DHT22;33529;49.242;8.670;2023-07-20T06:41:52;21.70;99.90
47765;DHT22;33529;49.242;8.670;2023-07-20T06:44:21;22.00;99.90
47765;DHT22;33529;49.242;8.670;2023-07-20T06:46:48;21.80;99.90
47765;DHT22;33529;49.242;8.670;2023-07-20T06:49:25;21.70;99.90
47765;DHT22;33529;49.242;8.670;2023-07-20T06:51:53;21.60;99.90
47765;DHT22;33529;49.242;8.670;2023-07-20T06:54:20;22.00;99.90
47765;DHT22;33529;49.242;8.670;2023-07-20T06:56:49;21.90;99.30
47765;DHT22;33529;49.242;8.670;2023-07-20T06:59:36;21.80;99.30
47765;DHT22;33529;49.242;8.670;2023-07-20T07:02:07;21.70;99.60
47765;DHT22;33529;49.242;8.670;2023-07-20T07:04:41;21.40;99.90
47765;DHT22;33529;49.242;8.670;2023-07-20T07:07:08;21.40;99.90
47765;DHT22;33529;49.242;8.670;2023-07-20T07:09:36;21.60;99.40
47765;DHT22;33529;49.242;8.670;2023-07-20T07:12:04;21.70;99.20
47765;DHT22;33529;49.242;8.670;2023-07-20T07:14:30;21.50;99.10
47765;DHT22;33529;49.242;8.670;2023-07-20T07:16:59;21.30;99.90
47765;DHT22;33529;49.242;8.670;2023-07-20T07:19:30;21.30;99.90
47765;DHT22;33529;49.242;8.670;2023-07-20T07:21:57;21.50;99.90
47765;DHT22;33529;49.242;8.670;2023-07-20T07:24:26;21.80;99.90
47765;DHT22;33529;49.242;8.670;2023-07-20T07:26:55;22.10;99.30
47765;DHT22;33529;49.242;8.670;2023-07-20T07:29:22;22.10;99.90
47765;DHT22;33529;49.242;8.670;2023-07-20T07:31:49;22.00;99.90
47765;DHT22;33529;49.242;8.670;2023-07-20T07:34:16;22.10;99.80
47765;DHT22;33529;49.242;8.670;2023-07-20T07:36:43;22.20;98.80
47765;DHT22;33529;49.242;8.670;2023-07-20T07:39:10;22.30;99.00
47765;DHT22;33529;49.242;8.670;2023-07-20T07:41:40;22.40;99.50
47765;DHT22;33529;49.242;8.670;2023-07-20T07:44:07;22.60;99.60
47765;DHT22;33529;49.242;8.670;2023-07-20T07:46:34;22.70;97.70
47765;DHT22;33529;49.242;8.670;2023-07-20T07:49:01;22.90;98.40
47765;DHT22;33529;49.242;8.670;2023-07-20T07:51:28;23.10;97.90
47765;DHT22;33529;49.242;8.670;2023-07-20T07:53:54;23.20;97.20
47765;DHT22;33529;49.242;8.670;2023-07-20T07:56:21;23.30;99.20
47765;DHT22;33529;49.242;8.670;2023-07-20T07:58:50;23.40;97.20
47765;DHT22;33529;49.242;8.670;2023-07-20T08:01:18;23.60;97.30
47765;DHT22;33529;49.242;8.670;2023-07-20T08:03:49;23.90;97.20
47765;DHT22;33529;49.242;8.670;2023-07-20T08:06:16;24.20;95.30
47765;DHT22;33529;49.242;8.670;2023-07-20T08:08:43;24.50;94.30
47765;DHT22;33529;49.242;8.670;2023-07-20T08:11:10;24.60;93.50
47765;DHT22;33529;49.242;8.670;2023-07-20T08:13:38;24.70;92.50
47765;DHT22;33529;49.242;8.670;2023-07-20T08:16:05;24.60;91.70
47765;DHT22;33529;49.242;8.670;2023-07-20T08:18:32;24.40;92.40
47765;DHT22;33529;49.242;8.670;2023-07-20T08:20:59;24.20;93.90
47765;DHT22;33529;49.242;8.670;2023-07-20T08:23:26;24.20;90.70
47765;DHT22;33529;49.242;8.670;2023-07-20T08:25:54;23.70;91.90
47765;DHT22;33529;49.242;8.670;2023-07-20T08:28:21;23.20;91.70
47765;DHT22;33529;49.242;8.670;2023-07-20T08:30:49;23.00;91.40
47765;DHT22;33529;49.242;8.670;2023-07-20T08:33:17;23.10;91.80
47765;DHT22;33529;49.242;8.670;2023-07-20T08:35:47;23.30;91.80
47765;DHT22;33529;49.242;8.670;2023-07-20T08:38:14;23.50;91.10
47765;DHT22;33529;49.242;8.670;2023-07-20T08:40:42;23.90;92.00
47765;DHT22;33529;49.242;8.670;2023-07-20T08:43:13;24.20;91.20
47765;DHT22;33529;49.242;8.670;2023-07-20T08:45:41;24.30;91.10
47765;DHT22;33529;49.242;8.670;2023-07-20T08:48:08;24.30;91.20
47765;DHT22;33529;49.242;8.670;2023-07-20T08:50:35;24.60;91.20
47765;DHT22;33529;49.242;8.670;2023-07-20T08:53:02;24.80;91.10
47765;DHT22;33529;49.242;8.670;2023-07-20T08:55:30;25.10;91.10
47765;DHT22;33529;49.242;8.670;2023-07-20T08:57:59;25.10;90.30
47765;DHT22;33529;49.242;8.670;2023-07-20T09:00:27;25.20;89.70
47765;DHT22;33529;49.242;8.670;2023-07-20T09:02:57;25.00;89.40
47765;DHT22;33529;49.242;8.670;2023-07-20T09:05:27;25.00;89.10
47765;DHT22;33529;49.242;8.670;2023-07-20T09:07:54;24.90;89.70
47765;DHT22;33529;49.242;8.670;2023-07-20T09:10:22;24.50;88.00
47765;DHT22;33529;49.242;8.670;2023-07-20T09:12:49;24.10;89.40
47765;DHT22;33529;49.242;8.670;2023-07-20T09:15:16;23.80;90.10
47765;DHT22;33529;49.242;8.670;2023-07-20T09:17:47;23.80;90.30
47765;DHT22;33529;49.242;8.670;2023-07-20T09:20:17;24.10;90.60
47765;DHT22;33529;49.242;8.670;2023-07-20T09:22:50;24.10;90.20
47765;DHT22;33529;49.242;8.670;2023-07-20T09:25:20;24.40;90.20
47765;DHT22;33529;49.242;8.670;2023-07-20T09:27:50;24.70;88.30
47765;DHT22;33529;49.242;8.670;2023-07-20T09:30:19;25.10;89.00
47765;DHT22;33529;49.242;8.670;2023-07-20T09:32:47;25.40;87.90
47765;DHT22;33529;49.242;8.670;2023-07-20T09:35:21;25.80;86.90
47765;DHT22;33529;49.242;8.670;2023-07-20T09:38:00;25.70;86.30
47765;DHT22;33529;49.242;8.670;2023-07-20T09:40:30;25.30;87.00
47765;DHT22;33529;49.242;8.670;2023-07-20T09:43:10;25.00;86.50
47765;DHT22;33529;49.242;8.670;2023-07-20T09:45:41;24.50;88.40
47765;DHT22;33529;49.242;8.670;2023-07-20T09:48:13;24.20;86.30
47765;DHT22;33529;49.242;8.670;2023-07-20T09:50:49;24.10;88.60
47765;DHT22;33529;49.242;8.670;2023-07-20T09:53:17;24.00;86.90
47765;DHT22;33529;49.242;8.670;2023-07-20T09:55:46;24.00;86.50
47765;DHT22;33529;49.242;8.670;2023-07-20T09:58:15;24.30;86.00
47765;DHT22;33529;49.242;8.670;2023-07-20T10:00:43;24.70;83.90
47765;DHT22;33529;49.242;8.670;2023-07-20T10:03:21;25.10;85.70
47765;DHT22;33529;49.242;8.670;2023-07-20T10:05:52;25.50;84.60
47765;DHT22;33529;49.242;8.670;2023-07-20T10:08:24;25.50;81.70
47765;DHT22;33529;49.242;8.670;2023-07-20T10:10:54;25.50;83.50
47765;DHT22;33529;49.242;8.670;2023-07-20T10:13:29;25.50;83.40
47765;DHT22;33529;49.242;8.670;2023-07-20T10:16:02;25.40;83.70
47765;DHT22;33529;49.242;8.670;2023-07-20T10:21:20;25.50;80.70
47765;DHT22;33529;49.242;8.670;2023-07-20T10:23:53;25.80;80.10
47765;DHT22;33529;49.242;8.670;2023-07-20T10:26:21;26.10;79.20
47765;DHT22;33529;49.242;8.670;2023-07-20T10:28:50;26.30;78.70
47765;DHT22;33529;49.242;8.670;2023-07-20T10:31:17;26.50;79.20
47765;DHT22;33529;49.242;8.670;2023-07-20T10:33:44;26.70;80.50
47765;DHT22;33529;49.242;8.670;2023-07-20T10:36:12;26.90;80.00
47765;DHT22;33529;49.242;8.670;2023-07-20T10:41:27;26.90;78.40
47765;DHT22;33529;49.242;8.670;2023-07-20T10:44:04;26.60;76.50
47765;DHT22;33529;49.242;8.670;2023-07-20T10:46:43;26.60;77.80
47765;DHT22;33529;49.242;8.670;2023-07-20T10:49:13;26.80;80.50
47765;DHT22;33529;49.242;8.670;2023-07-20T10:51:44;26.80;77.40
47765;DHT22;33529;49.242;8.670;2023-07-20T10:56:49;26.60;77.80
47765;DHT22;33529;49.242;8.670;2023-07-20T10:59:36;26.50;76.20
47765;DHT22;33529;49.242;8.670;2023-07-20T11:02:08;26.30;78.10
47765;DHT22;33529;49.242;8.670;2023-07-20T11:04:42;26.00;77.20
47765;DHT22;33529;49.242;8.670;2023-07-20T11:07:09;25.60;77.70
47765;DHT22;33529;49.242;8.670;2023-07-20T11:09:38;25.60;79.30
47765;DHT22;33529;49.242;8.670;2023-07-20T11:12:14;25.80;79.30
47765;DHT22;33529;49.242;8.670;2023-07-20T11:14:42;25.90;79.60
47765;DHT22;33529;49.242;8.670;2023-07-20T11:17:14;26.10;78.00
47765;DHT22;33529;49.242;8.670;2023-07-20T11:19:41;26.30;80.20
47765;DHT22;33529;49.242;8.670;2023-07-20T11:22:11;26.50;77.20
47765;DHT22;33529;49.242;8.670;2023-07-20T11:24:39;26.50;78.40
47765;DHT22;33529;49.242;8.670;2023-07-20T11:27:06;26.80;75.80
47765;DHT22;33529;49.242;8.670;2023-07-20T11:29:35;26.50;76.40
47765;DHT22;33529;49.242;8.670;2023-07-20T11:32:02;26.40;76.10
47765;DHT22;33529;49.242;8.670;2023-07-20T11:34:32;26.40;76.30
47765;DHT22;33529;49.242;8.670;2023-07-20T11:37:00;26.30;76.60
47765;DHT22;33529;49.242;8.670;2023-07-20T11:39:30;26.40;78.00
47765;DHT22;33529;49.242;8.670;2023-07-20T11:41:57;26.50;75.80
47765;DHT22;33529;49.242;8.670;2023-07-20T11:44:26;26.50;74.50
47765;DHT22;33529;49.242;8.670;2023-07-20T11:47:05;26.40;76.10
47765;DHT22;33529;49.242;8.670;2023-07-20T11:49:42;26.50;76.20
47765;DHT22;33529;49.242;8.670;2023-07-20T11:52:13;26.50;75.20
47765;DHT22;33529;49.242;8.670;2023-07-20T11:54:43;26.70;74.40
47765;DHT22;33529;49.242;8.670;2023-07-20T11:57:19;26.70;73.60
47765;DHT22;33529;49.242;8.670;2023-07-20T12:00:04;26.70;73.70
47765;DHT22;33529;49.242;8.670;2023-07-20T12:02:35;27.10;75.30
47765;DHT22;33529;49.242;8.670;2023-07-20T12:05:04;27.20;73.10
47765;DHT22;33529;49.242;8.670;2023-07-20T12:07:35;27.40;73.30
47765;DHT22;33529;49.242;8.670;2023-07-20T12:10:07;27.30;72.80
47765;DHT22;33529;49.242;8.670;2023-07-20T12:12:38;27.20;73.80
47765;DHT22;33529;49.242;8.670;2023-07-20T12:15:21;27.20;74.20
47765;DHT22;33529;49.242;8.670;2023-07-20T12:17:53;27.10;72.70
47765;DHT22;33529;49.242;8.670;2023-07-20T12:20:34;26.90;72.50
47765;DHT22;33529;49.242;8.670;2023-07-20T12:23:13;27.10;73.00
47765;DHT22;33529;49.242;8.670;2023-07-20T12:25:41;27.40;73.10
47765;DHT22;33529;49.242;8.670;2023-07-20T12:28:11;27.80;71.80
47765;DHT22;33529;49.242;8.670;2023-07-20T12:30:39;27.70;71.20
47765;DHT22;33529;49.242;8.670;2023-07-20T12:33:06;27.40;68.90
47765;DHT22;33529;49.242;8.670;2023-07-20T12:35:33;27.30;71.90
47765;DHT22;33529;49.242;8.670;2023-07-20T12:38:00;27.00;71.70
47765;DHT22;33529;49.242;8.670;2023-07-20T12:40:27;26.80;70.70
47765;DHT22;33529;49.242;8.670;2023-07-20T12:42:54;26.30;73.20
47765;DHT22;33529;49.242;8.670;2023-07-20T12:45:21;26.10;74.90
47765;DHT22;33529;49.242;8.670;2023-07-20T12:47:48;26.10;73.40
47765;DHT22;33529;49.242;8.670;2023-07-20T12:50:16;26.10;72.70
47765;DHT22;33529;49.242;8.670;2023-07-20T12:52:43;26.10;73.10
47765;DHT22;33529;49.242;8.670;2023-07-20T12:55:10;26.00;73.30
47765;DHT22;33529;49.242;8.670;2023-07-20T12:57:37;25.90;72.80
47765;DHT22;33529;49.242;8.670;2023-07-20T13:00:06;26.10;75.30
47765;DHT22;33529;49.242;8.670;2023-07-20T13:02:35;26.20;72.60
47765;DHT22;33529;49.242;8.670;2023-07-20T13:05:03;26.40;70.20
47765;DHT22;33529;49.242;8.670;2023-07-20T13:07:38;26.30;70.50
47765;DHT22;33529;49.242;8.670;2023-07-20T13:10:10;26.10;70.70
47765;DHT22;33529;49.242;8.670;2023-07-20T13:12:38;26.20;70.30
47765;DHT22;33529;49.242;8.670;2023-07-20T13:15:08;26.20;71.30
47765;DHT22;33529;49.242;8.670;2023-07-20T13:17:36;25.90;70.50
47765;DHT22;33529;49.242;8.670;2023-07-20T13:20:04;26.00;70.60
47765;DHT22;33529;49.242;8.670;2023-07-20T13:22:33;26.20;72.40
47765;DHT22;33529;49.242;8.670;2023-07-20T13:25:01;26.40;71.30
47765;DHT22;33529;49.242;8.670;2023-07-20T13:27:28;26.50;71.60
47765;DHT22;33529;49.242;8.670;2023-07-20T13:29:59;26.60;71.90
47765;DHT22;33529;49.242;8.670;2023-07-20T13:32:29;26.80;72.20
47765;DHT22;33529;49.242;8.670;2023-07-20T13:35:00;26.90;70.70
47765;DHT22;33529;49.242;8.670;2023-07-20T13:37:27;26.50;70.30
47765;DHT22;33529;49.242;8.670;2023-07-20T13:39:55;26.10;70.50
47765;DHT22;33529;49.242;8.670;2023-07-20T13:42:23;26.20;72.30
47765;DHT22;33529;49.242;8.670;2023-07-20T13:44:50;26.40;71.90
47765;DHT22;33529;49.242;8.670;2023-07-20T13:47:17;26.50;74.20
47765;DHT22;33529;49.242;8.670;2023-07-20T13:49:46;26.50;70.80
47765;DHT22;33529;49.242;8.670;2023-07-20T13:52:14;26.50;71.90
47765;DHT22;33529;49.242;8.670;2023-07-20T13:54:44;26.50;71.60
47765;DHT22;33529;49.242;8.670;2023-07-20T13:57:14;26.50;70.40
47765;DHT22;33529;49.242;8.670;2023-07-20T13:59:43;26.60;70.90
47765;DHT22;33529;49.242;8.670;2023-07-20T14:02:10;26.70;71.50
47765;DHT22;33529;49.242;8.670;2023-07-20T14:04:40;26.60;68.80
47765;DHT22;33529;49.242;8.670;2023-07-20T14:07:08;26.60;68.20
47765;DHT22;33529;49.242;8.670;2023-07-20T14:09:36;26.70;72.20
47765;DHT22;33529;49.242;8.670;2023-07-20T14:12:03;26.60;69.00
47765;DHT22;33529;49.242;8.670;2023-07-20T14:14:33;26.60;69.50
47765;DHT22;33529;49.242;8.670;2023-07-20T14:17:00;27.00;68.50
47765;DHT22;33529;49.242;8.670;2023-07-20T14:19:27;27.50;68.70
47765;DHT22;33529;49.242;8.670;2023-07-20T14:21:54;28.40;67.40
47765;DHT22;33529;49.242;8.670;2023-07-20T14:24:21;29.20;66.90
47765;DHT22;33529;49.242;8.670;2023-07-20T14:26:48;30.10;63.60
47765;DHT22;33529;49.242;8.670;2023-07-20T14:29:18;31.00;64.20
47765;DHT22;33529;49.242;8.670;2023-07-20T14:31:45;31.90;62.80
47765;DHT22;33529;49.242;8.670;2023-07-20T14:34:17;32.20;62.30
47765;DHT22;33529;49.242;8.670;2023-07-20T14:36:45;32.80;60.60
47765;DHT22;33529;49.242;8.670;2023-07-20T14:39:12;33.00;58.50
47765;DHT22;33529;49.242;8.670;2023-07-20T14:41:39;32.90;57.70
47765;DHT22;33529;49.242;8.670;2023-07-20T14:44:06;33.70;56.30
47765;DHT22;33529;49.242;8.670;2023-07-20T14:46:33;33.40;57.60
47765;DHT22;33529;49.242;8.670;2023-07-20T14:49:00;34.30;58.10
47765;DHT22;33529;49.242;8.670;2023-07-20T14:51:27;34.80;54.30
47765;DHT22;33529;49.242;8.670;2023-07-20T14:54:01;35.10;53.90
47765;DHT22;33529;49.242;8.670;2023-07-20T14:56:28;35.10;55.90
47765;DHT22;33529;49.242;8.670;2023-07-20T14:58:57;35.70;54.70
47765;DHT22;33529;49.242;8.670;2023-07-20T15:01:24;35.50;52.20
47765;DHT22;33529;49.242;8.670;2023-07-20T15:03:51;35.20;52.20
47765;DHT22;33529;49.242;8.670;2023-07-20T15:06:24;33.90;53.10
47765;DHT22;33529;49.242;8.670;2023-07-20T15:08:52;33.10;55.30
47765;DHT22;33529;49.242;8.670;2023-07-20T15:11:19;33.70;54.00
47765;DHT22;33529;49.242;8.670;2023-07-20T15:13:45;34.50;52.70
47765;DHT22;33529;49.242;8.670;2023-07-20T15:16:12;35.20;51.70
47765;DHT22;33529;49.242;8.670;2023-07-20T15:18:39;35.40;51.40
47765;DHT22;33529;49.242;8.670;2023-07-20T15:21:14;36.30;50.40
47765;DHT22;33529;49.242;8.670;2023-07-20T15:23:44;36.20;51.30
47765;DHT22;33529;49.242;8.670;2023-07-20T15:26:11;36.40;51.40
47765;DHT22;33529;49.242;8.670;2023-07-20T15:28:39;36.30;51.30
47765;DHT22;33529;49.242;8.670;2023-07-20T15:31:07;36.00;51.30
47765;DHT22;33529;49.242;8.670;2023-07-20T15:33:34;35.80;51.00
47765;DHT22;33529;49.242;8.670;2023-07-20T15:36:01;35.40;50.80
47765;DHT22;33529;49.242;8.670;2023-07-20T15:38:28;35.70;52.00
47765;DHT22;33529;49.242;8.670;2023-07-20T15:40:55;36.90;51.60
47765;DHT22;33529;49.242;8.670;2023-07-20T15:43:28;36.60;52.00
47765;DHT22;33529;49.242;8.670;2023-07-20T15:46:47;37.10;49.80
47765;DHT22;33529;49.242;8.670;2023-07-20T15:48:48;37.10;51.30
47765;DHT22;33529;49.242;8.670;2023-07-20T15:51:15;36.50;50.30
47765;DHT22;33529;49.242;8.670;2023-07-20T15:53:42;36.30;50.10
47765;DHT22;33529;49.242;8.670;2023-07-20T15:56:08;35.70;50.20
47765;DHT22;33529;49.242;8.670;2023-07-20T15:58:35;35.40;49.70